Airfield :
LOGIN :

Register | Disclaimer

   EN    FR    IT 

 










Legend :    VFR   Marginal VFR   IFR   Intensive IFR   Very Intensive IFR
Visi :
Ceiling :
>= 8 km
>= 3000ft
5 to 8 km
1000 to 3000 ft
1500m to 5 km
500 to 1000 ft
800 to 1500m
200 to 500 ft
< 800m
< 200 ft
Symbols :   Thunderstorms  Fog  Heavy snow  Heavy precipitations  Wind > 20 kt
SIGMETs :     Misc.  Thunderstorms  Icing  Turbulence  Mountain Waves  Volcanic Ashes






- Airport Elevation : 659 ft
- IATA code : LGG


EBLG - Liège

CURRENT METAR :
  • 130820Z 24011KT 9999 FEW015 BKN025 14/10 Q1014 NOSIG

EXPIRED METARs :
  • 130750Z 24012KT 9999 SCT014 BKN028 13/10 Q1014 NOSIG
  • 130720Z 24011KT 9999 FEW011 BKN028 13/10 Q1014 NOSIG
  • 130650Z 24010KT 9999 FEW008 BKN022 13/11 Q1014 NOSIG
  • 130620Z 23012KT 9999 FEW008 BKN022 12/10 Q1014 NOSIG
  • 130550Z 23011KT 9999 SCT026 12/10 Q1014 NOSIG
  • 130520Z 23011KT 9999 BKN026 11/10 Q1013 NOSIG
  • 130450Z 23011KT 9999 BKN026 11/10 Q1013 NOSIG
  • 130420Z 23010KT 9999 SCT026 11/10 Q1013 NOSIG
  • 130350Z 22010KT 9999 FEW015 11/10 Q1013 NOSIG

TAF TAF EBLG
Valid from the 13 at 06:00 until the 14 at 12:00 UTC


130504Z 1306/1412 25009KT 9999 FEW015 SCT025
PROB30
TEMPO 1312/1318 SHRA



MET'MAP, your aeronautical weather chart ! - Copyright ORBIFLY December 2007 - Disclaimer

ORBIFLY MET'MAP TEAM :

Programming & Development : Alexandra Zaïnal
Original concept : Baudouin d'Aumeries
Technical & hardware support : Manuel Goepfert
Assistance : Marc-Olivier Méhu




SOURCES & CREDITS :

   NOAA